Time;durP1;ratioP1;P1;durP2;ratioP2;P2;SDS_P1;SDS_P2;PMS_P1;PMS_P2;Temp;Humidity;BMP_temperature;BMP_pressure;BME280_temperature;BME280_humidity;BME280_pressure;Samples;Min_cycle;Max_cycle;Signal;HPM_P1;HPM_P2
2021/11/21 00:00:03;;;;;;;;;;;23.70;52.80;;;;;;5133090;28;19908;-75
2021/11/21 00:02:29;;;;;;;;;;;23.90;55.00;;;;;;5132888;28;19915;-74
2021/11/21 00:04:54;;;;;;;;;;;24.00;55.90;;;;;;5132994;28;20244;-75
2021/11/21 00:07:19;;;;;;;;;;;24.00;55.40;;;;;;5131988;28;20006;-75
2021/11/21 00:09:45;;;;;;;;;;;24.00;55.10;;;;;;5131985;28;19918;-76
2021/11/21 00:12:13;;;;;;;;;;;24.10;54.40;;;;;;5114926;28;19919;-75
2021/11/21 00:14:38;;;;;;;;;;;24.10;54.10;;;;;;5112327;28;20007;-72
2021/11/21 00:17:07;;;;;;;;;;;24.20;53.60;;;;;;5112199;28;20011;-73
2021/11/21 00:19:33;;;;;;;;;;;24.20;53.70;;;;;;5111650;28;19908;-75
2021/11/21 00:22:01;;;;;;;;;;;24.20;54.50;;;;;;5145909;27;19916;-73
2021/11/21 00:24:28;;;;;;;;;;;24.20;54.90;;;;;;5121826;28;19907;-74
2021/11/21 00:26:54;;;;;;;;;;;24.20;55.00;;;;;;5131655;28;19908;-76
2021/11/21 00:29:22;;;;;;;;;;;24.10;55.10;;;;;;5131775;28;19908;-79
2021/11/21 00:31:47;;;;;;;;;;;24.10;54.70;;;;;;5132531;28;19911;-75
2021/11/21 00:34:15;;;;;;;;;;;24.10;54.80;;;;;;5131522;28;20010;-73
2021/11/21 00:36:43;;;;;;;;;;;24.10;54.70;;;;;;5131604;28;19920;-76
2021/11/21 00:39:09;;;;;;;;;;;24.10;54.50;;;;;;5114578;28;19908;-75
2021/11/21 00:41:34;;;;;;;;;;;24.10;54.30;;;;;;5132316;28;19907;-74
2021/11/21 00:44:00;;;;;;;;;;;24.10;54.10;;;;;;5132146;28;19908;-75
2021/11/21 00:46:26;;;;;;;;;;;24.10;54.00;;;;;;5132059;28;19908;-74
2021/11/21 00:48:56;;;;;;;;;;;24.10;53.80;;;;;;5102928;28;19908;-74
2021/11/21 00:51:22;;;;;;;;;;;24.10;53.70;;;;;;5118338;28;20304;-74
2021/11/21 00:53:52;;;;;;;;;;;24.10;53.50;;;;;;5117489;28;19918;-76
2021/11/21 00:56:19;;;;;;;;;;;24.10;53.40;;;;;;5118100;28;19965;-76
2021/11/21 00:58:49;;;;;;;;;;;24.00;53.20;;;;;;5117374;28;19919;-74
2021/11/21 01:01:17;;;;;;;;;;;24.10;53.10;;;;;;5117554;28;19904;-75
2021/11/21 01:03:43;;;;;;;;;;;24.00;52.70;;;;;;5117290;28;19919;-73
2021/11/21 01:06:08;;;;;;;;;;;24.00;52.60;;;;;;5117326;28;19908;-74
2021/11/21 01:08:34;;;;;;;;;;;24.10;52.60;;;;;;5118262;28;19912;-72
2021/11/21 01:11:02;;;;;;;;;;;24.10;52.40;;;;;;5118173;28;20014;-76
2021/11/21 01:13:28;;;;;;;;;;;24.00;52.40;;;;;;5117132;28;20347;-72
2021/11/21 01:15:53;;;;;;;;;;;24.00;52.20;;;;;;5117145;28;19923;-72
2021/11/21 01:18:21;;;;;;;;;;;24.00;52.00;;;;;;5117003;28;20345;-74
2021/11/21 01:20:49;;;;;;;;;;;24.00;52.00;;;;;;5099907;28;19938;-75
2021/11/21 01:23:17;;;;;;;;;;;24.00;51.90;;;;;;5117596;28;20373;-74
2021/11/21 01:25:43;;;;;;;;;;;24.00;51.80;;;;;;5117671;28;19907;-77
2021/11/21 01:28:08;;;;;;;;;;;23.90;51.70;;;;;;5117711;28;19908;-73
2021/11/21 01:30:37;;;;;;;;;;;24.00;51.70;;;;;;5116993;28;19908;-74
2021/11/21 01:33:02;;;;;;;;;;;23.90;51.60;;;;;;5099824;28;20325;-74
2021/11/21 01:35:30;;;;;;;;;;;23.90;51.60;;;;;;5117414;28;20007;-73
2021/11/21 01:37:55;;;;;;;;;;;23.90;51.40;;;;;;5116808;28;19912;-76
2021/11/21 01:40:21;;;;;;;;;;;23.90;51.50;;;;;;5117401;28;20386;-76
2021/11/21 01:42:47;;;;;;;;;;;23.90;51.30;;;;;;5100243;28;19911;-72
2021/11/21 01:45:12;;;;;;;;;;;23.90;51.30;;;;;;5116479;28;19908;-75
2021/11/21 01:47:38;;;;;;;;;;;23.80;51.20;;;;;;5117383;28;19908;-77
2021/11/21 01:50:05;;;;;;;;;;;23.80;51.10;;;;;;5117347;28;19908;-75
2021/11/21 01:52:30;;;;;;;;;;;23.80;51.00;;;;;;5116181;28;19999;-76
2021/11/21 01:54:56;;;;;;;;;;;23.80;50.90;;;;;;5117089;28;19947;-76
2021/11/21 01:57:24;;;;;;;;;;;23.80;50.90;;;;;;5117119;28;20018;-73
2021/11/21 01:59:50;;;;;;;;;;;23.80;50.90;;;;;;5115120;28;19912;-75
2021/11/21 02:02:15;;;;;;;;;;;23.80;50.70;;;;;;5099345;28;19908;-76
2021/11/21 02:04:46;;;;;;;;;;;23.80;50.80;;;;;;5117388;28;20285;-76
2021/11/21 02:07:11;;;;;;;;;;;23.80;50.70;;;;;;5116920;28;19911;-73
2021/11/21 02:09:37;;;;;;;;;;;23.80;50.70;;;;;;5117004;28;19984;-77
2021/11/21 02:12:02;;;;;;;;;;;23.80;50.60;;;;;;5116130;28;19908;-75
2021/11/21 02:14:29;;;;;;;;;;;23.70;50.50;;;;;;5116930;28;19915;-74
2021/11/21 02:16:57;;;;;;;;;;;23.70;50.50;;;;;;5116773;28;19950;-73
2021/11/21 02:19:24;;;;;;;;;;;23.70;50.50;;;;;;5116981;28;19908;-75
2021/11/21 02:21:50;;;;;;;;;;;23.70;50.40;;;;;;5099468;28;19961;-78
2021/11/21 02:24:15;;;;;;;;;;;23.70;50.30;;;;;;5108442;28;20260;-75
2021/11/21 02:26:41;;;;;;;;;;;23.70;50.20;;;;;;5078428;28;20295;-75
2021/11/21 02:29:06;;;;;;;;;;;23.70;50.20;;;;;;5095917;28;19958;-77
2021/11/21 02:31:32;;;;;;;;;;;23.70;50.20;;;;;;5095937;28;19908;-76
2021/11/21 02:34:00;;;;;;;;;;;23.70;50.10;;;;;;5078420;28;20230;-74
2021/11/21 02:36:29;;;;;;;;;;;23.70;50.00;;;;;;5095561;28;19928;-72
2021/11/21 02:38:59;;;;;;;;;;;23.70;50.00;;;;;;5095947;28;19919;-74
2021/11/21 02:41:24;;;;;;;;;;;23.70;49.80;;;;;;5095007;28;19908;-74
2021/11/21 02:43:50;;;;;;;;;;;23.70;49.70;;;;;;5095095;28;19931;-75
2021/11/21 02:46:16;;;;;;;;;;;23.70;49.70;;;;;;5095407;28;20249;-75
2021/11/21 02:48:43;;;;;;;;;;;23.70;49.70;;;;;;5095822;28;19938;-74
2021/11/21 02:51:10;;;;;;;;;;;23.70;49.50;;;;;;5078000;28;19966;-77
2021/11/21 02:53:37;;;;;;;;;;;23.70;49.40;;;;;;5078223;28;19954;-73
2021/11/21 02:56:06;;;;;;;;;;;23.70;49.50;;;;;;5094990;28;19912;-77
2021/11/21 02:58:33;;;;;;;;;;;23.70;49.40;;;;;;5094883;28;20234;-74
2021/11/21 03:00:59;;;;;;;;;;;23.60;49.30;;;;;;5095864;28;19948;-77
2021/11/21 03:03:27;;;;;;;;;;;23.60;49.20;;;;;;5094951;28;19909;-74
2021/11/21 03:05:54;;;;;;;;;;;23.60;49.10;;;;;;5095498;28;20007;-73
2021/11/21 03:08:20;;;;;;;;;;;23.60;49.00;;;;;;5094605;28;19908;-75
2021/11/21 03:10:48;;;;;;;;;;;23.60;49.00;;;;;;5095301;28;20272;-74
2021/11/21 03:13:13;;;;;;;;;;;23.60;48.90;;;;;;5095024;28;19908;-76
2021/11/21 03:15:39;;;;;;;;;;;23.60;48.80;;;;;;5095376;28;20009;-72
2021/11/21 03:18:06;;;;;;;;;;;23.60;48.70;;;;;;5095398;28;20341;-78
2021/11/21 03:20:35;;;;;;;;;;;23.60;48.70;;;;;;5095600;28;19926;-73
2021/11/21 03:23:01;;;;;;;;;;;23.60;48.60;;;;;;5094662;28;19908;-73
2021/11/21 03:25:26;;;;;;;;;;;23.60;48.50;;;;;;5113349;28;19930;-73
2021/11/21 03:27:52;;;;;;;;;;;23.60;48.40;;;;;;5115516;28;20386;-76
2021/11/21 03:30:20;;;;;;;;;;;23.70;48.40;;;;;;5114960;28;19995;-74
2021/11/21 03:32:48;;;;;;;;;;;23.60;48.30;;;;;;5115528;28;19935;-77
2021/11/21 03:35:16;;;;;;;;;;;23.60;48.20;;;;;;5115449;28;19994;-74
2021/11/21 03:37:45;;;;;;;;;;;23.60;48.20;;;;;;5115404;28;19973;-73
2021/11/21 03:40:14;;;;;;;;;;;23.60;48.10;;;;;;5114647;28;19955;-76
2021/11/21 03:42:42;;;;;;;;;;;23.60;48.00;;;;;;5114452;28;20294;-75
2021/11/21 03:45:10;;;;;;;;;;;23.60;47.90;;;;;;5115589;28;19958;-72
2021/11/21 03:47:38;;;;;;;;;;;23.60;47.80;;;;;;5114562;28;19908;-73
2021/11/21 03:50:04;;;;;;;;;;;23.60;47.80;;;;;;5115374;28;19991;-73
2021/11/21 03:52:30;;;;;;;;;;;23.60;47.70;;;;;;5097249;28;20392;-76
2021/11/21 03:54:55;;;;;;;;;;;23.60;47.70;;;;;;5115372;28;20263;-76
2021/11/21 03:57:21;;;;;;;;;;;23.60;47.60;;;;;;5115178;28;19912;-74
2021/11/21 03:59:46;;;;;;;;;;;23.60;47.50;;;;;;5097358;28;19919;-76
2021/11/21 04:02:12;;;;;;;;;;;23.60;47.40;;;;;;5115469;28;20252;-73
2021/11/21 04:04:37;;;;;;;;;;;23.60;47.30;;;;;;5115344;28;19923;-77
2021/11/21 04:07:05;;;;;;;;;;;23.60;47.30;;;;;;5115246;28;19908;-77
2021/11/21 04:09:33;;;;;;;;;;;23.60;47.30;;;;;;5115571;28;19912;-73
2021/11/21 04:12:00;;;;;;;;;;;23.60;47.20;;;;;;5115197;28;19969;-75
2021/11/21 04:14:26;;;;;;;;;;;23.60;47.20;;;;;;5115289;28;19912;-73
2021/11/21 04:16:54;;;;;;;;;;;23.60;47.10;;;;;;5114903;28;19922;-75
2021/11/21 04:19:19;;;;;;;;;;;23.60;47.10;;;;;;5115072;28;19995;-77
2021/11/21 04:21:47;;;;;;;;;;;23.60;47.00;;;;;;5115326;28;20297;-75
2021/11/21 04:24:15;;;;;;;;;;;23.50;46.90;;;;;;5117813;28;19930;-75
2021/11/21 04:26:44;;;;;;;;;;;23.60;46.80;;;;;;5117841;28;19908;-75
2021/11/21 04:29:10;;;;;;;;;;;23.50;46.70;;;;;;5118746;28;19918;-77
2021/11/21 04:31:36;;;;;;;;;;;23.60;46.70;;;;;;5118948;28;20393;-75
2021/11/21 04:34:01;;;;;;;;;;;23.50;46.70;;;;;;5118261;28;19908;-75
2021/11/21 04:36:27;;;;;;;;;;;23.50;46.60;;;;;;5117922;28;19924;-74
2021/11/21 04:38:52;;;;;;;;;;;23.50;46.50;;;;;;5118370;28;19908;-75
2021/11/21 04:41:18;;;;;;;;;;;23.60;46.50;;;;;;5118854;28;19997;-75
2021/11/21 04:43:46;;;;;;;;;;;23.60;46.50;;;;;;5118709;28;19969;-76
2021/11/21 04:46:12;;;;;;;;;;;23.50;46.40;;;;;;5118738;28;19907;-74
2021/11/21 04:48:38;;;;;;;;;;;23.60;46.50;;;;;;5100981;28;20325;-76
2021/11/21 04:51:06;;;;;;;;;;;23.60;46.40;;;;;;5101129;28;19908;-73
2021/11/21 04:53:31;;;;;;;;;;;23.50;46.30;;;;;;5100912;28;19907;-75
2021/11/21 04:55:56;;;;;;;;;;;23.50;46.20;;;;;;5118343;28;19915;-75
2021/11/21 04:58:22;;;;;;;;;;;23.50;46.20;;;;;;5119443;28;19908;-73
2021/11/21 05:00:47;;;;;;;;;;;23.60;46.20;;;;;;5118303;28;19908;-75
2021/11/21 05:03:13;;;;;;;;;;;23.60;46.10;;;;;;5118173;28;19938;-77
2021/11/21 05:05:38;;;;;;;;;;;23.50;46.00;;;;;;5118123;28;20406;-74
2021/11/21 05:08:06;;;;;;;;;;;23.60;46.00;;;;;;5117988;28;19935;-75
2021/11/21 05:10:32;;;;;;;;;;;23.50;46.00;;;;;;5117897;28;20004;-75
2021/11/21 05:13:00;;;;;;;;;;;23.50;45.90;;;;;;5117991;28;19996;-72
2021/11/21 05:15:28;;;;;;;;;;;23.50;45.90;;;;;;5117097;28;19908;-73
2021/11/21 05:17:54;;;;;;;;;;;23.50;45.80;;;;;;5117073;28;19911;-72
2021/11/21 05:20:19;;;;;;;;;;;23.60;45.80;;;;;;5118036;28;20426;-74
2021/11/21 05:22:45;;;;;;;;;;;23.50;45.70;;;;;;5117086;28;19908;-76
2021/11/21 05:25:11;;;;;;;;;;;23.50;45.70;;;;;;5117858;28;19907;-75
2021/11/21 05:27:43;;;;;;;;;;;23.50;45.70;;;;;;5116941;28;20252;-77
2021/11/21 05:30:13;;;;;;;;;;;23.50;45.70;;;;;;5117058;28;19955;-74
2021/11/21 05:32:41;;;;;;;;;;;23.60;45.70;;;;;;5117522;28;20400;-74
2021/11/21 05:35:09;;;;;;;;;;;23.50;45.60;;;;;;5116555;28;19907;-74
2021/11/21 05:37:36;;;;;;;;;;;23.50;45.50;;;;;;5117295;28;19981;-73
2021/11/21 05:40:04;;;;;;;;;;;23.50;45.50;;;;;;5117495;28;19918;-75
2021/11/21 05:42:29;;;;;;;;;;;23.60;45.50;;;;;;5099420;28;19908;-72
2021/11/21 05:44:57;;;;;;;;;;;23.60;45.50;;;;;;5117356;28;20007;-73
2021/11/21 05:47:23;;;;;;;;;;;23.60;46.00;;;;;;5116715;28;19908;-77
2021/11/21 05:49:51;;;;;;;;;;;23.50;45.40;;;;;;5117516;28;19960;-74
2021/11/21 05:52:16;;;;;;;;;;;23.50;45.30;;;;;;5099928;28;19907;-72
2021/11/21 05:54:44;;;;;;;;;;;23.50;45.30;;;;;;5116470;28;19969;-77
2021/11/21 05:57:12;;;;;;;;;;;23.60;45.30;;;;;;5117072;28;19922;-72
2021/11/21 05:59:39;;;;;;;;;;;23.50;45.20;;;;;;5116255;28;20348;-74
2021/11/21 06:02:09;;;;;;;;;;;23.50;45.20;;;;;;5099682;28;19918;-76
2021/11/21 06:04:37;;;;;;;;;;;23.60;45.20;;;;;;5117246;28;19918;-75
2021/11/21 06:07:08;;;;;;;;;;;23.50;45.10;;;;;;5117084;28;19908;-74
2021/11/21 06:09:34;;;;;;;;;;;23.50;45.10;;;;;;5116298;28;19964;-76
2021/11/21 06:11:59;;;;;;;;;;;23.50;45.10;;;;;;5116179;28;19916;-76
2021/11/21 06:14:25;;;;;;;;;;;23.50;45.00;;;;;;5116965;28;20301;-75
2021/11/21 06:16:50;;;;;;;;;;;23.50;45.00;;;;;;5116688;28;20273;-77
2021/11/21 06:19:16;;;;;;;;;;;23.50;45.00;;;;;;5116847;28;19935;-75
2021/11/21 06:21:44;;;;;;;;;;;23.50;44.90;;;;;;5115821;28;20352;-79
2021/11/21 06:24:09;;;;;;;;;;;23.50;44.90;;;;;;5109144;28;19912;-74
2021/11/21 06:26:35;;;;;;;;;;;23.50;44.80;;;;;;5096205;28;19919;-73
2021/11/21 06:29:00;;;;;;;;;;;23.50;44.90;;;;;;5096223;28;19948;-74
2021/11/21 06:31:26;;;;;;;;;;;23.50;44.90;;;;;;5078589;28;19909;-76
2021/11/21 06:33:51;;;;;;;;;;;23.50;44.80;;;;;;5078270;28;19908;-75
2021/11/21 06:36:17;;;;;;;;;;;23.50;44.90;;;;;;5078032;28;19927;-73
2021/11/21 06:38:45;;;;;;;;;;;23.50;44.80;;;;;;5095405;28;19908;-75
2021/11/21 06:41:10;;;;;;;;;;;23.50;44.80;;;;;;5095409;28;19919;-74
2021/11/21 06:43:36;;;;;;;;;;;23.50;44.70;;;;;;5095153;28;19908;-76
2021/11/21 06:46:04;;;;;;;;;;;23.50;44.70;;;;;;5095439;28;19916;-76
2021/11/21 06:48:34;;;;;;;;;;;23.50;44.70;;;;;;5095023;28;19908;-74
2021/11/21 06:51:02;;;;;;;;;;;23.50;44.70;;;;;;5094962;28;19919;-77
2021/11/21 06:53:27;;;;;;;;;;;23.50;44.60;;;;;;5095925;28;20367;-75
2021/11/21 06:55:55;;;;;;;;;;;23.50;44.60;;;;;;5095554;28;19908;-76
2021/11/21 06:58:21;;;;;;;;;;;23.50;44.60;;;;;;5095939;28;20298;-71
2021/11/21 07:00:49;;;;;;;;;;;23.50;44.60;;;;;;5095832;28;19907;-75
2021/11/21 07:03:17;;;;;;;;;;;23.50;44.50;;;;;;5094614;28;20340;-73
2021/11/21 07:05:42;;;;;;;;;;;23.50;44.50;;;;;;5094531;28;20068;-71
2021/11/21 07:08:10;;;;;;;;;;;23.50;44.50;;;;;;5094760;28;19953;-74
2021/11/21 07:10:35;;;;;;;;;;;23.50;44.50;;;;;;5095238;28;20277;-71
2021/11/21 07:13:02;;;;;;;;;;;23.50;44.40;;;;;;5095455;28;20524;-75
2021/11/21 07:15:28;;;;;;;;;;;23.50;44.40;;;;;;5095556;28;19993;-76
2021/11/21 07:17:54;;;;;;;;;;;23.50;44.40;;;;;;5095479;28;20317;-74
2021/11/21 07:20:19;;;;;;;;;;;23.50;44.40;;;;;;5077857;28;19908;-76
2021/11/21 07:22:45;;;;;;;;;;;23.50;44.40;;;;;;5095590;28;19931;-74
2021/11/21 07:25:12;;;;;;;;;;;23.50;44.30;;;;;;5111484;28;19995;-72
2021/11/21 07:27:41;;;;;;;;;;;23.50;44.30;;;;;;5114978;28;20362;-76
2021/11/21 07:30:07;;;;;;;;;;;23.40;44.30;;;;;;5115780;28;19908;-73
2021/11/21 07:32:32;;;;;;;;;;;23.50;44.30;;;;;;5114996;28;20006;-74
2021/11/21 07:35:00;;;;;;;;;;;23.50;44.30;;;;;;5115465;28;19999;-75
2021/11/21 07:37:25;;;;;;;;;;;23.50;44.30;;;;;;5114277;28;19920;-75
2021/11/21 07:39:51;;;;;;;;;;;23.50;44.30;;;;;;5114429;28;19934;-76
2021/11/21 07:42:20;;;;;;;;;;;23.50;44.30;;;;;;5097582;28;19912;-75
2021/11/21 07:44:48;;;;;;;;;;;23.50;44.20;;;;;;5115341;28;20287;-75
2021/11/21 07:47:16;;;;;;;;;;;23.50;44.30;;;;;;5115415;28;19915;-74
2021/11/21 07:49:42;;;;;;;;;;;23.50;44.50;;;;;;5115697;28;19943;-74
2021/11/21 07:52:07;;;;;;;;;;;23.40;44.60;;;;;;5115793;28;19974;-74
2021/11/21 07:54:33;;;;;;;;;;;23.40;44.80;;;;;;5115413;28;20355;-73
2021/11/21 07:56:58;;;;;;;;;;;23.40;44.80;;;;;;5114379;28;19912;-76
2021/11/21 07:59:24;;;;;;;;;;;23.40;45.40;;;;;;5118088;28;19908;-73
2021/11/21 08:01:52;;;;;;;;;;;23.40;44.90;;;;;;5118382;28;19968;-73
2021/11/21 08:04:17;;;;;;;;;;;23.40;44.90;;;;;;5118597;28;19922;-76
2021/11/21 08:06:43;;;;;;;;;;;23.40;44.90;;;;;;5119243;28;19994;-74
2021/11/21 08:09:09;;;;;;;;;;;23.40;44.90;;;;;;5118724;28;19915;-74
2021/11/21 08:11:37;;;;;;;;;;;23.40;44.90;;;;;;5117770;28;19907;-73
2021/11/21 08:14:02;;;;;;;;;;;23.40;44.90;;;;;;5117692;28;20311;-76
2021/11/21 08:16:30;;;;;;;;;;;23.40;45.00;;;;;;5118675;28;19912;-75
2021/11/21 08:18:55;;;;;;;;;;;23.40;45.00;;;;;;5117707;28;19983;-75
2021/11/21 08:21:21;;;;;;;;;;;23.40;45.00;;;;;;5117872;28;19958;-74
2021/11/21 08:23:49;;;;;;;;;;;23.40;45.00;;;;;;5119036;28;19908;-73
2021/11/21 08:26:14;;;;;;;;;;;23.40;45.00;;;;;;5119020;28;19908;-73
2021/11/21 08:28:40;;;;;;;;;;;23.40;45.00;;;;;;5118685;28;19908;-74
2021/11/21 08:31:08;;;;;;;;;;;23.40;45.00;;;;;;5117739;28;19954;-74
2021/11/21 08:33:34;;;;;;;;;;;23.40;45.00;;;;;;5118042;28;20029;-74
2021/11/21 08:36:02;;;;;;;;;;;23.40;45.00;;;;;;5117761;28;20052;-75
2021/11/21 08:38:30;;;;;;;;;;;23.30;45.00;;;;;;5117752;28;19923;-77
2021/11/21 08:40:57;;;;;;;;;;;23.30;45.60;;;;;;5118674;28;19918;-74
2021/11/21 08:43:23;;;;;;;;;;;23.30;45.00;;;;;;5118313;28;19988;-75
2021/11/21 08:45:48;;;;;;;;;;;23.30;45.00;;;;;;5118105;28;20334;-74
2021/11/21 08:48:14;;;;;;;;;;;23.30;45.00;;;;;;5117880;28;20390;-73
2021/11/21 08:50:39;;;;;;;;;;;23.30;45.00;;;;;;5117974;28;19947;-75
2021/11/21 08:53:05;;;;;;;;;;;23.30;45.10;;;;;;5116985;28;20002;-74
2021/11/21 08:55:31;;;;;;;;;;;23.30;45.10;;;;;;5117925;28;19965;-74
2021/11/21 08:57:59;;;;;;;;;;;23.30;45.10;;;;;;5116872;28;20345;-71
2021/11/21 09:00:24;;;;;;;;;;;23.30;45.10;;;;;;5116984;28;19908;-72
2021/11/21 09:02:50;;;;;;;;;;;23.30;45.10;;;;;;5100241;28;19918;-77
2021/11/21 09:05:15;;;;;;;;;;;23.30;45.10;;;;;;5117924;28;19939;-74
2021/11/21 09:07:44;;;;;;;;;;;23.30;45.10;;;;;;5116577;28;19908;-73
2021/11/21 09:10:13;;;;;;;;;;;23.30;45.10;;;;;;5099353;28;19912;-75
2021/11/21 09:12:44;;;;;;;;;;;23.30;45.10;;;;;;5116416;28;20397;-75
2021/11/21 09:15:14;;;;;;;;;;;23.30;45.60;;;;;;5117363;28;19915;-78
2021/11/21 09:17:40;;;;;;;;;;;23.30;45.10;;;;;;5116249;28;19940;-74
2021/11/21 09:20:06;;;;;;;;;;;23.30;45.10;;;;;;5116455;28;20064;-72
2021/11/21 09:22:32;;;;;;;;;;;23.30;45.10;;;;;;5117267;28;20366;-72
2021/11/21 09:24:58;;;;;;;;;;;23.30;45.10;;;;;;5116639;28;20006;-75
2021/11/21 09:27:23;;;;;;;;;;;23.30;45.10;;;;;;5116057;28;19935;-76
2021/11/21 09:29:49;;;;;;;;;;;23.30;45.70;;;;;;5117201;28;20328;-72
2021/11/21 09:32:14;;;;;;;;;;;23.30;45.10;;;;;;5117754;28;19907;-75
2021/11/21 09:34:40;;;;;;;;;;;23.30;45.10;;;;;;5117609;28;19918;-73
2021/11/21 09:37:06;;;;;;;;;;;23.30;45.10;;;;;;5116340;28;20007;-77
2021/11/21 09:39:31;;;;;;;;;;;23.30;45.10;;;;;;5116498;28;20333;-74
2021/11/21 09:41:57;;;;;;;;;;;23.30;45.00;;;;;;5117369;28;20381;-74
2021/11/21 09:44:23;;;;;;;;;;;23.30;45.00;;;;;;5099732;28;19919;-72
2021/11/21 09:46:52;;;;;;;;;;;23.30;45.00;;;;;;5113022;28;19918;-75
2021/11/21 09:49:18;;;;;;;;;;;23.30;45.10;;;;;;5096672;28;19944;-75
2021/11/21 09:51:45;;;;;;;;;;;23.30;45.40;;;;;;5096158;28;19969;-72
2021/11/21 09:54:14;;;;;;;;;;;23.30;45.40;;;;;;5096922;28;20291;-77
2021/11/21 09:56:40;;;;;;;;;;;23.40;45.10;;;;;;5109445;28;20002;-76
2021/11/21 09:59:06;;;;;;;;;;;23.50;44.80;;;;;;5117110;28;19966;-75
2021/11/21 10:01:35;;;;;;;;;;;23.60;44.70;;;;;;5117011;28;20005;-74
2021/11/21 10:04:03;;;;;;;;;;;23.60;44.60;;;;;;5116889;28;19915;-78
2021/11/21 10:06:36;;;;;;;;;;;23.60;44.80;;;;;;5115737;28;20010;-79
2021/11/21 10:09:08;;;;;;;;;;;23.60;45.00;;;;;;5115755;28;19912;-77
2021/11/21 10:11:53;;;;;;;;;;;23.70;45.10;;;;;;5116624;28;19961;-76
2021/11/21 10:14:19;;;;;;;;;;;23.70;45.40;;;;;;5115759;28;19943;-78
2021/11/21 10:16:44;;;;;;;;;;;23.70;46.30;;;;;;5115578;28;20300;-76
2021/11/21 10:19:11;;;;;;;;;;;23.70;47.60;;;;;;5116269;28;19931;-75
2021/11/21 10:21:37;;;;;;;;;;;23.70;47.90;;;;;;5115525;28;19957;-79
2021/11/21 10:24:13;;;;;;;;;;;23.70;48.10;;;;;;5109028;28;19912;-78
2021/11/21 10:26:39;;;;;;;;;;;23.70;48.30;;;;;;5095594;28;19943;-77
2021/11/21 10:29:23;;;;;;;;;;;23.70;48.40;;;;;;5094765;28;19955;-74
2021/11/21 10:31:49;;;;;;;;;;;23.70;48.50;;;;;;5095862;28;19908;-75
2021/11/21 10:34:14;;;;;;;;;;;23.70;48.30;;;;;;5094608;28;19908;-76
2021/11/21 10:36:40;;;;;;;;;;;23.70;48.20;;;;;;5094573;28;19928;-75
2021/11/21 10:39:08;;;;;;;;;;;23.70;48.10;;;;;;5094204;28;19912;-77
2021/11/21 10:41:40;;;;;;;;;;;23.70;48.00;;;;;;5094883;28;19908;-77
2021/11/21 10:44:05;;;;;;;;;;;23.70;47.90;;;;;;5078445;28;20341;-76
2021/11/21 10:46:40;;;;;;;;;;;23.70;47.80;;;;;;5095586;28;19908;-76
2021/11/21 10:49:12;;;;;;;;;;;23.70;47.70;;;;;;5094945;28;19908;-79
2021/11/21 10:51:37;;;;;;;;;;;23.70;47.60;;;;;;5094395;28;19909;-76
2021/11/21 10:54:03;;;;;;;;;;;23.70;47.50;;;;;;5094528;28;19919;-75
2021/11/21 10:56:31;;;;;;;;;;;23.70;47.40;;;;;;5095386;28;19923;-77
2021/11/21 10:58:57;;;;;;;;;;;23.70;47.30;;;;;;5095545;28;20029;-77
2021/11/21 11:01:28;;;;;;;;;;;23.70;47.20;;;;;;5094300;28;20420;-74
2021/11/21 11:04:13;;;;;;;;;;;23.70;47.20;;;;;;5078094;28;20279;-75
2021/11/21 11:06:41;;;;;;;;;;;23.70;47.10;;;;;;5094315;28;19912;-76
2021/11/21 11:09:19;;;;;;;;;;;23.70;47.10;;;;;;5094629;28;19908;-75
2021/11/21 11:11:50;;;;;;;;;;;23.70;47.10;;;;;;5094203;28;19908;-78
2021/11/21 11:14:18;;;;;;;;;;;23.70;47.00;;;;;;5077623;28;19927;-74
2021/11/21 11:16:46;;;;;;;;;;;23.70;46.90;;;;;;5094572;28;19964;-79
2021/11/21 11:19:15;;;;;;;;;;;23.70;46.80;;;;;;5095414;28;19947;-78
2021/11/21 11:21:41;;;;;;;;;;;23.70;46.80;;;;;;5095042;28;19908;-76
2021/11/21 11:24:07;;;;;;;;;;;23.70;46.80;;;;;;5094579;28;19908;-77
2021/11/21 11:26:33;;;;;;;;;;;23.70;46.80;;;;;;5077532;28;19908;-76
2021/11/21 11:28:59;;;;;;;;;;;23.70;46.80;;;;;;5077559;28;19908;-77
2021/11/21 11:31:26;;;;;;;;;;;23.70;46.80;;;;;;5093900;28;19915;-77
2021/11/21 11:33:52;;;;;;;;;;;23.70;47.00;;;;;;5093924;28;20293;-73
2021/11/21 11:36:20;;;;;;;;;;;23.70;47.00;;;;;;5076514;28;19935;-74
2021/11/21 11:38:59;;;;;;;;;;;23.70;46.90;;;;;;5094903;28;19908;-75
2021/11/21 11:41:28;;;;;;;;;;;23.70;46.80;;;;;;5093754;28;19977;-79
2021/11/21 11:43:55;;;;;;;;;;;23.60;46.80;;;;;;5093366;28;19957;-74
2021/11/21 11:46:24;;;;;;;;;;;23.60;46.80;;;;;;5094788;28;19995;-78
2021/11/21 11:48:57;;;;;;;;;;;23.70;46.80;;;;;;5095666;28;19983;-75
2021/11/21 11:51:48;;;;;;;;;;;23.70;46.80;;;;;;5094936;28;19944;-75
2021/11/21 11:54:21;;;;;;;;;;;23.60;46.70;;;;;;5095121;28;19908;-78
2021/11/21 11:56:55;;;;;;;;;;;23.70;46.80;;;;;;5093809;28;20249;-74
2021/11/21 11:59:32;;;;;;;;;;;23.70;46.70;;;;;;5094759;28;20002;-77
2021/11/21 12:02:06;;;;;;;;;;;23.70;46.70;;;;;;5093712;28;19912;-78
2021/11/21 12:04:31;;;;;;;;;;;23.70;46.80;;;;;;5111810;28;20162;-79
2021/11/21 12:07:02;;;;;;;;;;;23.70;47.20;;;;;;5113763;28;20547;-77
2021/11/21 12:09:28;;;;;;;;;;;23.80;47.20;;;;;;5114294;28;19907;-75
2021/11/21 12:12:00;;;;;;;;;;;23.80;46.90;;;;;;5114991;28;19971;-74
2021/11/21 12:14:26;;;;;;;;;;;23.70;46.90;;;;;;5115199;28;19912;-75
2021/11/21 12:17:08;;;;;;;;;;;23.70;46.80;;;;;;5115170;28;19923;-74
2021/11/21 12:19:40;;;;;;;;;;;23.70;47.00;;;;;;5097773;28;19995;-77
2021/11/21 12:22:06;;;;;;;;;;;23.70;47.00;;;;;;5115793;28;20336;-74
2021/11/21 12:24:32;;;;;;;;;;;23.70;46.90;;;;;;5114750;28;19939;-76
2021/11/21 12:26:57;;;;;;;;;;;23.80;46.90;;;;;;5115609;28;19908;-76
2021/11/21 12:29:34;;;;;;;;;;;23.70;46.80;;;;;;5114992;28;19908;-74
2021/11/21 12:32:17;;;;;;;;;;;23.80;46.80;;;;;;5115034;28;19972;-75
2021/11/21 12:34:48;;;;;;;;;;;23.80;46.90;;;;;;5114995;28;19908;-76
2021/11/21 12:37:20;;;;;;;;;;;23.80;46.80;;;;;;5114924;28;19920;-76
2021/11/21 12:39:51;;;;;;;;;;;23.80;46.80;;;;;;5122732;28;19907;-74
2021/11/21 12:42:17;;;;;;;;;;;23.80;46.80;;;;;;5115082;28;19908;-74
2021/11/21 12:44:43;;;;;;;;;;;23.80;46.80;;;;;;5117462;28;20346;-78
2021/11/21 12:47:11;;;;;;;;;;;23.80;46.80;;;;;;5118756;28;19994;-73
2021/11/21 12:49:38;;;;;;;;;;;23.80;46.70;;;;;;5117784;28;19916;-75
2021/11/21 12:52:13;;;;;;;;;;;23.80;46.70;;;;;;5118050;28;19907;-76
2021/11/21 12:54:39;;;;;;;;;;;23.80;46.70;;;;;;5118098;28;19908;-76
2021/11/21 12:57:05;;;;;;;;;;;23.80;46.60;;;;;;5118208;28;19965;-77
2021/11/21 12:59:45;;;;;;;;;;;23.80;46.60;;;;;;5118801;28;20292;-73
2021/11/21 13:02:14;;;;;;;;;;;23.80;46.60;;;;;;5117480;28;20343;-76
2021/11/21 13:04:46;;;;;;;;;;;23.80;46.60;;;;;;5117725;28;19908;-73
2021/11/21 13:07:24;;;;;;;;;;;23.80;46.60;;;;;;5118067;28;19926;-77
2021/11/21 13:09:57;;;;;;;;;;;23.80;46.60;;;;;;5117736;28;19912;-75
2021/11/21 13:12:28;;;;;;;;;;;23.80;46.60;;;;;;5117813;28;19936;-77
2021/11/21 13:14:57;;;;;;;;;;;23.80;46.70;;;;;;5099814;28;19969;-72
2021/11/21 13:17:23;;;;;;;;;;;23.80;46.70;;;;;;5099446;28;19951;-76
2021/11/21 13:20:04;;;;;;;;;;;23.80;46.70;;;;;;5098852;28;19993;-77
2021/11/21 13:22:48;;;;;;;;;;;23.80;46.80;;;;;;5117340;28;19908;-79
2021/11/21 13:25:37;;;;;;;;;;;23.80;46.80;;;;;;5116597;28;20037;-78
2021/11/21 13:28:21;;;;;;;;;;;23.80;46.30;;;;;;5108033;28;19908;-75
2021/11/21 13:30:49;;;;;;;;;;;23.80;44.80;;;;;;5118376;28;19943;-77
2021/11/21 13:33:21;;;;;;;;;;;23.20;38.90;;;;;;5125603;28;19915;-77
2021/11/21 13:35:56;;;;;;;;;;;22.50;38.60;;;;;;5126119;28;19907;-76
2021/11/21 13:38:22;;;;;;;;;;;21.60;39.20;;;;;;5125642;28;19907;-74
2021/11/21 13:40:49;;;;;;;;;;;21.60;41.90;;;;;;5125859;28;19911;-75
2021/11/21 13:43:14;;;;;;;;;;;21.90;43.60;;;;;;5108648;28;19908;-77
2021/11/21 13:45:40;;;;;;;;;;;22.20;45.00;;;;;;5125321;28;19939;-77
2021/11/21 13:48:43;;;;;;;;;;;22.50;45.20;;;;;;5126207;28;20282;-76
2021/11/21 13:51:14;;;;;;;;;;;22.70;44.20;;;;;;5083896;28;19924;-75
2021/11/21 13:53:46;;;;;;;;;;;22.90;43.90;;;;;;5120169;28;19908;-79
2021/11/21 13:56:15;;;;;;;;;;;23.10;43.70;;;;;;5125764;28;19907;-77
2021/11/21 13:58:43;;;;;;;;;;;23.30;43.50;;;;;;5109044;28;19908;-77
2021/11/21 14:01:21;;;;;;;;;;;23.40;43.50;;;;;;5122117;28;20340;-73
2021/11/21 14:03:50;;;;;;;;;;;23.50;43.40;;;;;;5118006;28;19926;-76
2021/11/21 14:06:17;;;;;;;;;;;23.60;44.00;;;;;;5099000;28;20006;-75
2021/11/21 14:08:45;;;;;;;;;;;23.60;44.70;;;;;;5115524;28;20313;-75
2021/11/21 14:11:11;;;;;;;;;;;23.70;44.70;;;;;;5115414;28;19908;-76
2021/11/21 14:13:44;;;;;;;;;;;23.70;44.50;;;;;;5098124;28;19908;-76
2021/11/21 14:16:15;;;;;;;;;;;23.70;44.30;;;;;;5115255;28;19911;-75
2021/11/21 14:18:47;;;;;;;;;;;23.80;44.20;;;;;;5115958;28;19908;-77